sensor_id;sensor_type;location;lat;lon;timestamp;pressure;altitude;pressure_sealevel;temperature;humidity
12358;BME280;6243;51.244;6.774;2023-02-28T00:02:11;148706.59;;;4.93;72.09
12358;BME280;6243;51.244;6.774;2023-02-28T00:04:37;148721.81;;;4.99;72.25
12358;BME280;6243;51.244;6.774;2023-02-28T00:07:04;148701.53;;;4.91;72.46
12358;BME280;6243;51.244;6.774;2023-02-28T00:09:29;148730.63;;;5.03;72.53
12358;BME280;6243;51.244;6.774;2023-02-28T00:11:55;148686.38;;;4.85;72.82
12358;BME280;6243;51.244;6.774;2023-02-28T00:14:20;148686.38;;;4.85;73.03
12358;BME280;6243;51.244;6.774;2023-02-28T00:16:46;148601.66;;;4.52;74.81
12358;BME280;6243;51.244;6.774;2023-02-28T00:19:11;148678.78;;;4.82;73.31
12358;BME280;6243;51.244;6.774;2023-02-28T00:21:37;148735.69;;;5.05;72.91
12358;BME280;6243;51.244;6.774;2023-02-28T00:24:05;148753.41;;;5.12;72.46
12358;BME280;6243;51.244;6.774;2023-02-28T00:26:30;148739.47;;;5.07;73.06
12358;BME280;6243;51.244;6.774;2023-02-28T00:28:56;148709.13;;;4.94;72.62
12358;BME280;6243;51.244;6.774;2023-02-28T00:31:21;148677.50;;;4.82;73.41
12358;BME280;6243;51.244;6.774;2023-02-28T00:33:47;148704.09;;;4.92;73.58
12358;BME280;6243;51.244;6.774;2023-02-28T00:36:12;148658.56;;;4.74;73.91
12358;BME280;6243;51.244;6.774;2023-02-28T00:38:39;148671.16;;;4.79;74.57
12358;BME280;6243;51.244;6.774;2023-02-28T00:41:07;148642.06;;;4.68;75.26
12358;BME280;6243;51.244;6.774;2023-02-28T00:43:34;148690.16;;;4.87;74.80
12358;BME280;6243;51.244;6.774;2023-02-28T00:46:00;148692.69;;;4.88;74.62
12358;BME280;6243;51.244;6.774;2023-02-28T00:48:25;148626.94;;;4.62;75.99
12358;BME280;6243;51.244;6.774;2023-02-28T00:50:51;148602.88;;;4.52;77.80
12358;BME280;6243;51.244;6.774;2023-02-28T00:53:16;148664.84;;;4.77;76.97
12358;BME280;6243;51.244;6.774;2023-02-28T00:55:42;148634.53;;;4.65;76.77
12358;BME280;6243;51.244;6.774;2023-02-28T00:58:09;148677.50;;;4.82;76.03
12358;BME280;6243;51.244;6.774;2023-02-28T01:00:34;148695.22;;;4.89;76.23
12358;BME280;6243;51.244;6.774;2023-02-28T01:03:00;148715.47;;;4.97;75.96
12358;BME280;6243;51.244;6.774;2023-02-28T01:05:25;148706.59;;;4.93;75.65
12358;BME280;6243;51.244;6.774;2023-02-28T01:07:51;148611.78;;;4.56;77.84
12358;BME280;6243;51.244;6.774;2023-02-28T01:10:16;148582.69;;;4.44;77.86
12358;BME280;6243;51.244;6.774;2023-02-28T01:12:42;148567.47;;;4.38;79.05
12358;BME280;6243;51.244;6.774;2023-02-28T01:15:11;148602.88;;;4.52;78.11
12358;BME280;6243;51.244;6.774;2023-02-28T01:17:36;148567.47;;;4.38;78.97
12358;BME280;6243;51.244;6.774;2023-02-28T01:20:02;148494.19;;;4.09;81.06
12358;BME280;6243;51.244;6.774;2023-02-28T01:22:28;148548.56;;;4.30;79.41
12358;BME280;6243;51.244;6.774;2023-02-28T01:24:53;148455.00;;;3.93;82.97
12358;BME280;6243;51.244;6.774;2023-02-28T01:27:19;148503.06;;;4.12;81.58
12358;BME280;6243;51.244;6.774;2023-02-28T01:29:45;148432.28;;;3.84;82.78
12358;BME280;6243;51.244;6.774;2023-02-28T01:32:12;148413.31;;;3.77;83.57
12358;BME280;6243;51.244;6.774;2023-02-28T01:34:37;148468.94;;;3.99;83.06
12358;BME280;6243;51.244;6.774;2023-02-28T01:37:03;148414.56;;;3.77;85.20
12358;BME280;6243;51.244;6.774;2023-02-28T01:39:29;148405.75;;;3.74;85.78
12358;BME280;6243;51.244;6.774;2023-02-28T01:41:54;148393.09;;;3.69;85.94
12358;BME280;6243;51.244;6.774;2023-02-28T01:44:58;148388.06;;;3.67;86.53
12358;BME280;6243;51.244;6.774;2023-02-28T01:47:27;148477.75;;;4.02;84.23
12358;BME280;6243;51.244;6.774;2023-02-28T01:49:54;148538.44;;;4.26;83.81
12358;BME280;6243;51.244;6.774;2023-02-28T01:52:21;148615.53;;;4.57;82.01
12358;BME280;6243;51.244;6.774;2023-02-28T01:54:51;148606.72;;;4.54;81.02
12358;BME280;6243;51.244;6.774;2023-02-28T01:57:19;148609.22;;;4.55;80.81
12358;BME280;6243;51.244;6.774;2023-02-28T01:59:51;148590.28;;;4.47;80.99
12358;BME280;6243;51.244;6.774;2023-02-28T02:02:20;148585.19;;;4.45;81.22
12358;BME280;6243;51.244;6.774;2023-02-28T02:04:51;148581.41;;;4.44;81.39
12358;BME280;6243;51.244;6.774;2023-02-28T02:07:18;148586.47;;;4.46;81.64
12358;BME280;6243;51.244;6.774;2023-02-28T02:09:44;148556.09;;;4.33;81.83
12358;BME280;6243;51.244;6.774;2023-02-28T02:12:14;148543.50;;;4.28;83.10
12358;BME280;6243;51.244;6.774;2023-02-28T02:14:56;148570.03;;;4.39;82.59
12358;BME280;6243;51.244;6.774;2023-02-28T02:17:31;148548.56;;;4.30;82.76
12358;BME280;6243;51.244;6.774;2023-02-28T02:20:37;148553.59;;;4.32;82.84
12358;BME280;6243;51.244;6.774;2023-02-28T02:23:38;148510.59;;;4.15;82.96
12358;BME280;6243;51.244;6.774;2023-02-28T02:26:39;148532.13;;;4.24;83.18
12358;BME280;6243;51.244;6.774;2023-02-28T02:29:36;148542.22;;;4.28;83.17
12358;BME280;6243;51.244;6.774;2023-02-28T02:32:16;148559.94;;;4.35;82.78
12358;BME280;6243;51.244;6.774;2023-02-28T02:34:57;148475.25;;;4.01;83.51
12358;BME280;6243;51.244;6.774;2023-02-28T02:37:31;148515.69;;;4.17;83.88
12358;BME280;6243;51.244;6.774;2023-02-28T02:40:03;148546.00;;;4.29;83.89
12358;BME280;6243;51.244;6.774;2023-02-28T02:42:39;148561.22;;;4.36;82.38
12358;BME280;6243;51.244;6.774;2023-02-28T02:45:09;148471.44;;;4.00;82.57
12358;BME280;6243;51.244;6.774;2023-02-28T02:47:39;148518.19;;;4.18;83.24
12358;BME280;6243;51.244;6.774;2023-02-28T02:50:11;148562.44;;;4.36;82.51
12358;BME280;6243;51.244;6.774;2023-02-28T02:52:42;148537.19;;;4.26;82.24
12358;BME280;6243;51.244;6.774;2023-02-28T02:55:12;148558.66;;;4.35;83.48
12358;BME280;6243;51.244;6.774;2023-02-28T02:57:43;148575.09;;;4.41;82.71
12358;BME280;6243;51.244;6.774;2023-02-28T03:00:12;148554.88;;;4.33;82.79
12358;BME280;6243;51.244;6.774;2023-02-28T03:02:40;148566.25;;;4.38;84.04
12358;BME280;6243;51.244;6.774;2023-02-28T03:05:12;148570.03;;;4.39;83.63
12358;BME280;6243;51.244;6.774;2023-02-28T03:07:42;148549.84;;;4.31;83.08
12358;BME280;6243;51.244;6.774;2023-02-28T03:10:27;148537.19;;;4.26;83.57
12358;BME280;6243;51.244;6.774;2023-02-28T03:13:00;148538.44;;;4.26;83.83
12358;BME280;6243;51.244;6.774;2023-02-28T03:15:34;148511.88;;;4.16;84.18
12358;BME280;6243;51.244;6.774;2023-02-28T03:18:04;148485.34;;;4.05;85.49
12358;BME280;6243;51.244;6.774;2023-02-28T03:20:39;148448.69;;;3.91;86.71
12358;BME280;6243;51.244;6.774;2023-02-28T03:23:14;148418.41;;;3.79;87.69
12358;BME280;6243;51.244;6.774;2023-02-28T03:25:51;148413.31;;;3.77;88.51
12358;BME280;6243;51.244;6.774;2023-02-28T03:28:24;148401.94;;;3.72;89.08
12358;BME280;6243;51.244;6.774;2023-02-28T03:30:58;148388.06;;;3.67;90.21
12358;BME280;6243;51.244;6.774;2023-02-28T03:33:28;148383.00;;;3.65;90.46
12358;BME280;6243;51.244;6.774;2023-02-28T03:35:59;148379.19;;;3.63;91.33
12358;BME280;6243;51.244;6.774;2023-02-28T03:38:31;148371.66;;;3.60;91.39
12358;BME280;6243;51.244;6.774;2023-02-28T03:41:05;148362.78;;;3.56;91.65
12358;BME280;6243;51.244;6.774;2023-02-28T03:43:35;148347.63;;;3.50;92.35
12358;BME280;6243;51.244;6.774;2023-02-28T03:46:07;148367.81;;;3.58;92.45
12358;BME280;6243;51.244;6.774;2023-02-28T03:48:39;148341.31;;;3.48;93.15
12358;BME280;6243;51.244;6.774;2023-02-28T03:51:09;148308.50;;;3.35;94.13
12358;BME280;6243;51.244;6.774;2023-02-28T03:53:39;148276.88;;;3.22;95.90
12358;BME280;6243;51.244;6.774;2023-02-28T03:56:11;148254.16;;;3.13;97.22
12358;BME280;6243;51.244;6.774;2023-02-28T03:58:42;148259.19;;;3.15;98.47
12358;BME280;6243;51.244;6.774;2023-02-28T04:01:11;148249.13;;;3.11;99.29
12358;BME280;6243;51.244;6.774;2023-02-28T04:03:38;148215.03;;;2.98;100.00
12358;BME280;6243;51.244;6.774;2023-02-28T04:06:07;148216.31;;;2.98;100.00
12358;BME280;6243;51.244;6.774;2023-02-28T04:08:37;148191.03;;;2.88;100.00
12358;BME280;6243;51.244;6.774;2023-02-28T04:11:05;148184.72;;;2.85;100.00
12358;BME280;6243;51.244;6.774;2023-02-28T04:13:31;148149.41;;;2.71;100.00
12358;BME280;6243;51.244;6.774;2023-02-28T04:15:57;148150.63;;;2.72;100.00
12358;BME280;6243;51.244;6.774;2023-02-28T04:18:22;148158.22;;;2.75;100.00
12358;BME280;6243;51.244;6.774;2023-02-28T04:20:48;148168.31;;;2.79;100.00
12358;BME280;6243;51.244;6.774;2023-02-28T04:23:15;148180.94;;;2.84;100.00
12358;BME280;6243;51.244;6.774;2023-02-28T04:25:40;148206.22;;;2.94;100.00
12358;BME280;6243;51.244;6.774;2023-02-28T04:28:06;148211.25;;;2.96;100.00
12358;BME280;6243;51.244;6.774;2023-02-28T04:30:32;148196.06;;;2.90;100.00
12358;BME280;6243;51.244;6.774;2023-02-28T04:32:57;148202.41;;;2.93;100.00
12358;BME280;6243;51.244;6.774;2023-02-28T04:35:22;148236.47;;;3.06;100.00
12358;BME280;6243;51.244;6.774;2023-02-28T04:37:48;148260.47;;;3.16;100.00
12358;BME280;6243;51.244;6.774;2023-02-28T04:40:15;148271.84;;;3.20;98.78
12358;BME280;6243;51.244;6.774;2023-02-28T04:42:41;148279.44;;;3.23;97.87
12358;BME280;6243;51.244;6.774;2023-02-28T04:45:08;148266.78;;;3.18;97.77
12358;BME280;6243;51.244;6.774;2023-02-28T04:47:34;148278.16;;;3.23;97.22
12358;BME280;6243;51.244;6.774;2023-02-28T04:49:59;148302.16;;;3.32;96.01
12358;BME280;6243;51.244;6.774;2023-02-28T04:52:24;148286.97;;;3.26;95.51
12358;BME280;6243;51.244;6.774;2023-02-28T04:54:52;148274.41;;;3.21;95.45
12358;BME280;6243;51.244;6.774;2023-02-28T04:57:19;148308.50;;;3.35;94.66
12358;BME280;6243;51.244;6.774;2023-02-28T04:59:44;148288.25;;;3.27;93.43
12358;BME280;6243;51.244;6.774;2023-02-28T05:02:10;148297.13;;;3.30;92.35
12358;BME280;6243;51.244;6.774;2023-02-28T05:04:35;148278.16;;;3.23;92.77
12358;BME280;6243;51.244;6.774;2023-02-28T05:07:02;148264.25;;;3.17;92.25
12358;BME280;6243;51.244;6.774;2023-02-28T05:09:28;148294.56;;;3.29;92.01
12358;BME280;6243;51.244;6.774;2023-02-28T05:11:54;148308.50;;;3.35;92.43
12358;BME280;6243;51.244;6.774;2023-02-28T05:14:21;148319.84;;;3.39;91.83
12358;BME280;6243;51.244;6.774;2023-02-28T05:16:47;148342.59;;;3.48;90.35
12358;BME280;6243;51.244;6.774;2023-02-28T05:19:12;148316.03;;;3.38;89.72
12358;BME280;6243;51.244;6.774;2023-02-28T05:21:40;148304.66;;;3.33;90.20
12358;BME280;6243;51.244;6.774;2023-02-28T05:24:07;148327.41;;;3.42;89.38
12358;BME280;6243;51.244;6.774;2023-02-28T05:26:34;148324.91;;;3.41;89.78
12358;BME280;6243;51.244;6.774;2023-02-28T05:29:00;148319.84;;;3.39;89.49
12358;BME280;6243;51.244;6.774;2023-02-28T05:31:27;148319.84;;;3.39;90.20
12358;BME280;6243;51.244;6.774;2023-02-28T05:33:52;148319.84;;;3.39;89.95
12358;BME280;6243;51.244;6.774;2023-02-28T05:36:18;148266.78;;;3.18;90.26
12358;BME280;6243;51.244;6.774;2023-02-28T05:38:46;148263.03;;;3.17;90.99
12358;BME280;6243;51.244;6.774;2023-02-28T05:41:11;148298.34;;;3.31;90.03
12358;BME280;6243;51.244;6.774;2023-02-28T05:43:37;148292.06;;;3.28;90.25
12358;BME280;6243;51.244;6.774;2023-02-28T05:46:04;148269.34;;;3.19;89.80
12358;BME280;6243;51.244;6.774;2023-02-28T05:48:31;148251.66;;;3.12;90.21
12358;BME280;6243;51.244;6.774;2023-02-28T05:50:57;148227.66;;;3.03;91.25
12358;BME280;6243;51.244;6.774;2023-02-28T05:53:23;148232.72;;;3.05;91.74
12358;BME280;6243;51.244;6.774;2023-02-28T05:55:48;148208.72;;;2.95;92.18
12358;BME280;6243;51.244;6.774;2023-02-28T05:58:13;148208.72;;;2.95;92.62
12358;BME280;6243;51.244;6.774;2023-02-28T06:00:39;148207.44;;;2.95;92.86
12358;BME280;6243;51.244;6.774;2023-02-28T06:03:04;148203.66;;;2.93;94.13
12358;BME280;6243;51.244;6.774;2023-02-28T06:05:31;148188.53;;;2.87;94.12
12358;BME280;6243;51.244;6.774;2023-02-28T06:07:57;148193.56;;;2.89;94.04
12358;BME280;6243;51.244;6.774;2023-02-28T06:10:22;148201.13;;;2.92;94.48
12358;BME280;6243;51.244;6.774;2023-02-28T06:12:48;148209.97;;;2.96;93.88
12358;BME280;6243;51.244;6.774;2023-02-28T06:15:14;148220.06;;;3.00;93.05
12358;BME280;6243;51.244;6.774;2023-02-28T06:17:40;148220.06;;;3.00;92.32
12358;BME280;6243;51.244;6.774;2023-02-28T06:20:08;148201.13;;;2.92;92.93
12358;BME280;6243;51.244;6.774;2023-02-28T06:22:36;148203.66;;;2.93;93.20
12358;BME280;6243;51.244;6.774;2023-02-28T06:25:01;148228.94;;;3.03;92.07
12358;BME280;6243;51.244;6.774;2023-02-28T06:27:27;148249.13;;;3.11;89.81
12358;BME280;6243;51.244;6.774;2023-02-28T06:29:54;148269.34;;;3.19;89.27
12358;BME280;6243;51.244;6.774;2023-02-28T06:32:19;148271.84;;;3.20;88.99
12358;BME280;6243;51.244;6.774;2023-02-28T06:34:45;148265.53;;;3.18;89.03
12358;BME280;6243;51.244;6.774;2023-02-28T06:37:11;148266.78;;;3.18;89.08
12358;BME280;6243;51.244;6.774;2023-02-28T06:39:37;148260.47;;;3.16;88.29
12358;BME280;6243;51.244;6.774;2023-02-28T06:42:03;148260.47;;;3.16;88.68
12358;BME280;6243;51.244;6.774;2023-02-28T06:44:29;148247.84;;;3.11;88.37
12358;BME280;6243;51.244;6.774;2023-02-28T06:46:54;148261.75;;;3.16;88.08
12358;BME280;6243;51.244;6.774;2023-02-28T06:49:20;148266.78;;;3.18;88.73
12358;BME280;6243;51.244;6.774;2023-02-28T06:51:45;148305.94;;;3.34;87.05
12358;BME280;6243;51.244;6.774;2023-02-28T06:54:11;148297.13;;;3.30;86.93
12358;BME280;6243;51.244;6.774;2023-02-28T06:56:38;148322.34;;;3.40;86.28
12358;BME280;6243;51.244;6.774;2023-02-28T06:59:05;148340.03;;;3.47;85.90
12358;BME280;6243;51.244;6.774;2023-02-28T07:01:31;148362.78;;;3.56;84.97
12358;BME280;6243;51.244;6.774;2023-02-28T07:03:56;148374.16;;;3.61;83.36
12358;BME280;6243;51.244;6.774;2023-02-28T07:06:22;148393.09;;;3.69;82.62
12358;BME280;6243;51.244;6.774;2023-02-28T07:08:47;148396.88;;;3.70;81.74
12358;BME280;6243;51.244;6.774;2023-02-28T07:11:13;148422.19;;;3.80;81.90
12358;BME280;6243;51.244;6.774;2023-02-28T07:13:40;148434.81;;;3.85;80.05
12358;BME280;6243;51.244;6.774;2023-02-28T07:16:09;148461.34;;;3.96;79.53
12358;BME280;6243;51.244;6.774;2023-02-28T07:18:35;148479.03;;;4.03;79.08
12358;BME280;6243;51.244;6.774;2023-02-28T07:21:01;148494.19;;;4.09;77.56
12358;BME280;6243;51.244;6.774;2023-02-28T07:23:27;148482.81;;;4.04;75.73
12358;BME280;6243;51.244;6.774;2023-02-28T07:25:52;148490.41;;;4.07;76.02
12358;BME280;6243;51.244;6.774;2023-02-28T07:28:18;148532.13;;;4.24;75.98
12358;BME280;6243;51.244;6.774;2023-02-28T07:30:45;148549.84;;;4.31;74.39
12358;BME280;6243;51.244;6.774;2023-02-28T07:33:10;148590.28;;;4.47;73.74
12358;BME280;6243;51.244;6.774;2023-02-28T07:35:36;148762.28;;;5.16;70.79
12358;BME280;6243;51.244;6.774;2023-02-28T07:38:02;149167.41;;;6.77;66.36
12358;BME280;6243;51.244;6.774;2023-02-28T07:40:28;149115.47;;;6.56;64.85
12358;BME280;6243;51.244;6.774;2023-02-28T07:42:54;148930.53;;;5.83;65.29
12358;BME280;6243;51.244;6.774;2023-02-28T07:45:19;148948.31;;;5.90;65.35
12358;BME280;6243;51.244;6.774;2023-02-28T07:47:46;148914.09;;;5.76;65.00
12358;BME280;6243;51.244;6.774;2023-02-28T07:50:14;148867.25;;;5.57;65.30
12358;BME280;6243;51.244;6.774;2023-02-28T07:52:41;148852.09;;;5.51;65.51
12358;BME280;6243;51.244;6.774;2023-02-28T07:55:08;148843.22;;;5.48;64.05
12358;BME280;6243;51.244;6.774;2023-02-28T07:57:34;148871.09;;;5.59;64.25
12358;BME280;6243;51.244;6.774;2023-02-28T08:00:00;148911.53;;;5.75;65.42
12358;BME280;6243;51.244;6.774;2023-02-28T08:02:25;148942.00;;;5.87;63.19
12358;BME280;6243;51.244;6.774;2023-02-28T08:04:52;148980.00;;;6.02;61.40
12358;BME280;6243;51.244;6.774;2023-02-28T08:07:18;148997.69;;;6.09;60.92
12358;BME280;6243;51.244;6.774;2023-02-28T08:09:44;149012.91;;;6.15;60.03
12358;BME280;6243;51.244;6.774;2023-02-28T08:12:10;149049.59;;;6.30;61.31
12358;BME280;6243;51.244;6.774;2023-02-28T08:14:36;149071.16;;;6.38;59.92
12358;BME280;6243;51.244;6.774;2023-02-28T08:17:02;149076.22;;;6.40;57.87
12358;BME280;6243;51.244;6.774;2023-02-28T08:19:28;149076.22;;;6.40;57.72
12358;BME280;6243;51.244;6.774;2023-02-28T08:21:55;149092.69;;;6.47;55.74
12358;BME280;6243;51.244;6.774;2023-02-28T08:24:21;149120.53;;;6.58;54.59
12358;BME280;6243;51.244;6.774;2023-02-28T08:26:47;149129.38;;;6.62;55.12
12358;BME280;6243;51.244;6.774;2023-02-28T08:29:12;149140.81;;;6.66;54.34
12358;BME280;6243;51.244;6.774;2023-02-28T08:31:38;149161.06;;;6.74;54.37
12358;BME280;6243;51.244;6.774;2023-02-28T08:34:05;149177.53;;;6.81;52.99
12358;BME280;6243;51.244;6.774;2023-02-28T08:36:31;149211.75;;;6.94;53.85
12358;BME280;6243;51.244;6.774;2023-02-28T08:38:58;149248.50;;;7.09;53.02
12358;BME280;6243;51.244;6.774;2023-02-28T08:41:24;149286.50;;;7.24;54.40
12358;BME280;6243;51.244;6.774;2023-02-28T08:43:49;149322.00;;;7.38;54.18
12358;BME280;6243;51.244;6.774;2023-02-28T08:46:15;149357.50;;;7.52;51.45
12358;BME280;6243;51.244;6.774;2023-02-28T08:48:40;149386.66;;;7.64;51.85
12358;BME280;6243;51.244;6.774;2023-02-28T08:51:13;149394.22;;;7.67;50.13
12358;BME280;6243;51.244;6.774;2023-02-28T08:53:40;149413.28;;;7.74;49.21
12358;BME280;6243;51.244;6.774;2023-02-28T08:56:13;149408.19;;;7.72;48.87
12358;BME280;6243;51.244;6.774;2023-02-28T08:58:40;149362.56;;;7.54;47.03
12358;BME280;6243;51.244;6.774;2023-02-28T09:01:09;149423.41;;;7.78;48.21
12358;BME280;6243;51.244;6.774;2023-02-28T09:03:35;149386.66;;;7.64;47.75
12358;BME280;6243;51.244;6.774;2023-02-28T09:06:01;149278.88;;;7.21;45.54
12358;BME280;6243;51.244;6.774;2023-02-28T09:08:27;149281.44;;;7.22;46.50
12358;BME280;6243;51.244;6.774;2023-02-28T09:10:54;149357.50;;;7.52;47.29
12358;BME280;6243;51.244;6.774;2023-02-28T09:13:21;149318.22;;;7.37;46.77
12358;BME280;6243;51.244;6.774;2023-02-28T09:15:46;149356.22;;;7.52;46.61
12358;BME280;6243;51.244;6.774;2023-02-28T09:18:12;149382.81;;;7.62;47.45
12358;BME280;6243;51.244;6.774;2023-02-28T09:20:38;149327.06;;;7.40;48.14
12358;BME280;6243;51.244;6.774;2023-02-28T09:23:04;149291.56;;;7.26;46.50
12358;BME280;6243;51.244;6.774;2023-02-28T09:25:29;149319.44;;;7.37;47.06
12358;BME280;6243;51.244;6.774;2023-02-28T09:27:55;149382.81;;;7.62;46.85
12358;BME280;6243;51.244;6.774;2023-02-28T09:30:22;149393.00;;;7.66;44.85
12358;BME280;6243;51.244;6.774;2023-02-28T09:32:47;149466.53;;;7.96;46.57
12358;BME280;6243;51.244;6.774;2023-02-28T09:35:13;149509.63;;;8.13;45.39
12358;BME280;6243;51.244;6.774;2023-02-28T09:37:38;149522.31;;;8.18;45.98
12358;BME280;6243;51.244;6.774;2023-02-28T09:40:05;149489.38;;;8.05;45.00
12358;BME280;6243;51.244;6.774;2023-02-28T09:42:32;149474.13;;;7.99;45.12
12358;BME280;6243;51.244;6.774;2023-02-28T09:45:00;149485.53;;;8.03;45.76
12358;BME280;6243;51.244;6.774;2023-02-28T09:47:30;149509.63;;;8.13;45.15
12358;BME280;6243;51.244;6.774;2023-02-28T09:49:58;149465.25;;;7.95;44.69
12358;BME280;6243;51.244;6.774;2023-02-28T09:52:29;149432.31;;;7.82;44.91
12358;BME280;6243;51.244;6.774;2023-02-28T09:54:54;149456.41;;;7.92;45.25
12358;BME280;6243;51.244;6.774;2023-02-28T09:57:27;149469.06;;;7.97;44.71
12358;BME280;6243;51.244;6.774;2023-02-28T10:00:05;149514.69;;;8.15;45.66
12358;BME280;6243;51.244;6.774;2023-02-28T10:05:52;149532.47;;;8.22;44.46
12358;BME280;6243;51.244;6.774;2023-02-28T10:08:22;149505.84;;;8.11;45.46
12358;BME280;6243;51.244;6.774;2023-02-28T10:10:51;149412.00;;;7.74;44.56
12358;BME280;6243;51.244;6.774;2023-02-28T10:13:24;149429.75;;;7.81;44.99
12358;BME280;6243;51.244;6.774;2023-02-28T10:15:55;149354.94;;;7.51;45.07
12358;BME280;6243;51.244;6.774;2023-02-28T10:18:25;149308.03;;;7.33;45.75
12358;BME280;6243;51.244;6.774;2023-02-28T10:20:55;149289.06;;;7.25;46.40
12358;BME280;6243;51.244;6.774;2023-02-28T10:23:24;149320.72;;;7.38;45.95
12358;BME280;6243;51.244;6.774;2023-02-28T10:25:55;149299.19;;;7.29;46.71
12358;BME280;6243;51.244;6.774;2023-02-28T10:28:24;149271.31;;;7.18;47.02
12358;BME280;6243;51.244;6.774;2023-02-28T10:30:52;149284.00;;;7.23;47.32
12358;BME280;6243;51.244;6.774;2023-02-28T10:33:22;149300.47;;;7.30;47.86
12358;BME280;6243;51.244;6.774;2023-02-28T10:35:48;149247.22;;;7.08;47.36
12358;BME280;6243;51.244;6.774;2023-02-28T10:38:18;149181.31;;;6.82;48.66
12358;BME280;6243;51.244;6.774;2023-02-28T10:40:44;149196.56;;;6.88;49.34
12358;BME280;6243;51.244;6.774;2023-02-28T10:43:19;149209.22;;;6.93;48.03
12358;BME280;6243;51.244;6.774;2023-02-28T10:45:53;149243.44;;;7.07;47.90
12358;BME280;6243;51.244;6.774;2023-02-28T10:48:32;149258.63;;;7.13;47.78
12358;BME280;6243;51.244;6.774;2023-02-28T10:50:59;149218.09;;;6.97;46.78
12358;BME280;6243;51.244;6.774;2023-02-28T10:53:33;149164.84;;;6.76;47.22
12358;BME280;6243;51.244;6.774;2023-02-28T10:56:01;149186.44;;;6.84;47.80
12358;BME280;6243;51.244;6.774;2023-02-28T10:58:29;149214.28;;;6.95;47.12
12358;BME280;6243;51.244;6.774;2023-02-28T11:00:55;149182.59;;;6.83;47.09
12358;BME280;6243;51.244;6.774;2023-02-28T11:03:29;149210.47;;;6.94;47.94
12358;BME280;6243;51.244;6.774;2023-02-28T11:05:55;149213.00;;;6.95;46.60
12358;BME280;6243;51.244;6.774;2023-02-28T11:08:21;149240.88;;;7.06;46.58
12358;BME280;6243;51.244;6.774;2023-02-28T11:10:54;149209.22;;;6.93;47.09
12358;BME280;6243;51.244;6.774;2023-02-28T11:13:25;149192.72;;;6.87;47.51
12358;BME280;6243;51.244;6.774;2023-02-28T11:15:54;149134.47;;;6.64;47.16
12358;BME280;6243;51.244;6.774;2023-02-28T11:18:23;149213.00;;;6.95;46.49
12358;BME280;6243;51.244;6.774;2023-02-28T11:20:51;149316.94;;;7.36;47.08
12358;BME280;6243;51.244;6.774;2023-02-28T11:23:18;149412.00;;;7.74;46.19
12358;BME280;6243;51.244;6.774;2023-02-28T11:25:50;149418.34;;;7.76;45.95
12358;BME280;6243;51.244;6.774;2023-02-28T11:28:28;149488.09;;;8.04;46.14
12358;BME280;6243;51.244;6.774;2023-02-28T11:31:03;149494.44;;;8.07;44.94
12358;BME280;6243;51.244;6.774;2023-02-28T11:33:31;149472.88;;;7.98;45.51
12358;BME280;6243;51.244;6.774;2023-02-28T11:36:01;149486.81;;;8.04;45.87
12358;BME280;6243;51.244;6.774;2023-02-28T11:38:27;149570.59;;;8.37;45.67
12358;BME280;6243;51.244;6.774;2023-02-28T11:41:05;149670.81;;;8.77;45.43
12358;BME280;6243;51.244;6.774;2023-02-28T11:43:42;149754.59;;;9.10;44.60
12358;BME280;6243;51.244;6.774;2023-02-28T11:46:20;149733.00;;;9.01;44.12
12358;BME280;6243;51.244;6.774;2023-02-28T11:48:56;149722.84;;;8.97;43.76
12358;BME280;6243;51.244;6.774;2023-02-28T11:51:31;149768.53;;;9.15;45.42
12358;BME280;6243;51.244;6.774;2023-02-28T11:57:01;149693.66;;;8.86;44.54
12358;BME280;6243;51.244;6.774;2023-02-28T11:59:42;149661.94;;;8.73;45.46
12358;BME280;6243;51.244;6.774;2023-02-28T12:02:24;149725.41;;;8.98;43.67
12358;BME280;6243;51.244;6.774;2023-02-28T12:05:01;149716.50;;;8.95;44.36
12358;BME280;6243;51.244;6.774;2023-02-28T12:07:37;149606.13;;;8.51;43.87
12358;BME280;6243;51.244;6.774;2023-02-28T12:10:20;149670.81;;;8.77;43.91
12358;BME280;6243;51.244;6.774;2023-02-28T12:12:55;149766.03;;;9.14;43.70
12358;BME280;6243;51.244;6.774;2023-02-28T12:15:50;149760.97;;;9.12;44.43
12358;BME280;6243;51.244;6.774;2023-02-28T12:18:29;149541.38;;;8.25;43.96
12358;BME280;6243;51.244;6.774;2023-02-28T12:21:01;149536.31;;;8.23;45.19
12358;BME280;6243;51.244;6.774;2023-02-28T12:23:54;149409.47;;;7.73;44.84
12358;BME280;6243;51.244;6.774;2023-02-28T12:26:27;149403.13;;;7.70;45.33
12358;BME280;6243;51.244;6.774;2023-02-28T12:29:04;149304.25;;;7.31;45.48
12358;BME280;6243;51.244;6.774;2023-02-28T12:31:36;149325.78;;;7.40;46.02
12358;BME280;6243;51.244;6.774;2023-02-28T12:34:07;149323.28;;;7.39;46.45
12358;BME280;6243;51.244;6.774;2023-02-28T12:36:36;149257.34;;;7.12;46.26
12358;BME280;6243;51.244;6.774;2023-02-28T12:39:05;149263.69;;;7.15;47.80
12358;BME280;6243;51.244;6.774;2023-02-28T12:41:44;149282.72;;;7.23;47.47
12358;BME280;6243;51.244;6.774;2023-02-28T12:44:17;149316.94;;;7.36;47.19
12358;BME280;6243;51.244;6.774;2023-02-28T12:46:47;149357.50;;;7.52;47.47
12358;BME280;6243;51.244;6.774;2023-02-28T12:49:17;149271.31;;;7.18;47.16
12358;BME280;6243;51.244;6.774;2023-02-28T12:51:45;149306.81;;;7.32;48.11
12358;BME280;6243;51.244;6.774;2023-02-28T12:54:19;149333.41;;;7.43;47.55
12358;BME280;6243;51.244;6.774;2023-02-28T12:56:52;149362.56;;;7.54;46.76
12358;BME280;6243;51.244;6.774;2023-02-28T12:59:24;149380.31;;;7.61;47.12
12358;BME280;6243;51.244;6.774;2023-02-28T13:02:25;149333.41;;;7.43;46.99
12358;BME280;6243;51.244;6.774;2023-02-28T13:08:20;149360.00;;;7.53;47.01
12358;BME280;6243;51.244;6.774;2023-02-28T13:10:50;149296.63;;;7.28;47.03
12358;BME280;6243;51.244;6.774;2023-02-28T13:13:18;149353.66;;;7.51;48.28
12358;BME280;6243;51.244;6.774;2023-02-28T13:16:01;149343.53;;;7.47;46.79
12358;BME280;6243;51.244;6.774;2023-02-28T13:18:30;149352.44;;;7.50;47.63
12358;BME280;6243;51.244;6.774;2023-02-28T13:20:56;149346.09;;;7.48;47.52
12358;BME280;6243;51.244;6.774;2023-02-28T13:23:39;149332.13;;;7.42;47.76
12358;BME280;6243;51.244;6.774;2023-02-28T13:26:05;149302.97;;;7.31;46.97
12358;BME280;6243;51.244;6.774;2023-02-28T13:28:59;149332.13;;;7.42;47.78
12358;BME280;6243;51.244;6.774;2023-02-28T13:31:26;149356.22;;;7.52;47.49